Time,TemperatureF,DewpointF,PressureIn,WindDirection,WindDirectionDegrees,WindSpeedMPH,WindSpeedGustMPH,Humidity,HourlyPrecipIn,Conditions,Clouds,dailyrainin,SoftwareType,DateUTC
2013-11-05 00:10:00,48.1,44.0,29.09,SW,235,4.0,9.0,87,0.00,,,0.00,weatherlink.com 1.10,2013-11-05 00:10:00,
2013-11-05 00:25:00,48.8,45.0,29.08,West,260,1.0,9.0,86,0.00,,,0.00,weatherlink.com 1.10,2013-11-05 00:25:00,
2013-11-05 00:40:00,49.1,45.0,29.07,West,264,5.0,15.0,86,0.00,,,0.00,weatherlink.com 1.10,2013-11-05 00:40:00,
2013-11-05 00:55:00,48.8,45.0,29.07,West,266,6.0,13.0,87,0.00,,,0.00,weatherlink.com 1.10,2013-11-05 00:55:00,
2013-11-05 01:10:00,48.7,45.0,29.07,West,267,5.0,14.0,88,0.00,,,0.00,weatherlink.com 1.10,2013-11-05 01:10:00,
2013-11-05 01:25:00,49.2,45.0,29.06,WNW,291,7.0,19.0,86,0.01,,,0.01,weatherlink.com 1.10,2013-11-05 01:25:00,
2013-11-05 01:40:00,49.4,45.0,29.07,NW,304,4.0,13.0,85,0.01,,,0.01,weatherlink.com 1.10,2013-11-05 01:40:00,
2013-11-05 01:55:00,49.3,45.0,29.06,WNW,283,8.0,18.0,85,0.01,,,0.01,weatherlink.com 1.10,2013-11-05 01:55:00,
2013-11-05 02:10:00,49.1,45.0,29.06,WSW,256,10.0,16.0,85,0.01,,,0.01,weatherlink.com 1.10,2013-11-05 02:10:00,
2013-11-05 02:25:00,48.6,44.0,29.06,WNW,291,3.0,18.0,85,0.00,,,0.01,weatherlink.com 1.10,2013-11-05 02:25:00,
2013-11-05 02:40:00,48.1,44.0,29.07,NNE,32,5.0,15.0,86,0.00,,,0.01,weatherlink.com 1.10,2013-11-05 02:40:00,
2013-11-05 02:55:00,47.9,44.0,29.05,SW,219,7.0,13.0,87,0.00,,,0.01,weatherlink.com 1.10,2013-11-05 02:55:00,
2013-11-05 03:10:00,47.9,45.0,29.05,WSW,252,4.0,14.0,88,0.00,,,0.01,weatherlink.com 1.10,2013-11-05 03:10:00,
2013-11-05 03:25:00,48.0,45.0,29.04,West,262,0.0,8.0,88,0.00,,,0.01,weatherlink.com 1.10,2013-11-05 03:25:00,
2013-11-05 03:40:00,48.1,45.0,29.05,WSW,241,2.0,8.0,88,0.00,,,0.01,weatherlink.com 1.10,2013-11-05 03:40:00,
2013-11-05 03:55:00,47.9,45.0,29.04,SW,235,2.0,7.0,89,0.02,,,0.02,weatherlink.com 1.10,2013-11-05 03:55:00,
2013-11-05 04:10:00,47.7,45.0,29.03,West,274,1.0,11.0,90,0.04,,,0.05,weatherlink.com 1.10,2013-11-05 04:10:00,
2013-11-05 04:25:00,47.4,45.0,29.02,WSW,237,1.0,4.0,91,0.07,,,0.08,weatherlink.com 1.10,2013-11-05 04:25:00,
2013-11-05 04:40:00,47.4,45.0,29.03,West,273,1.0,6.0,92,0.09,,,0.10,weatherlink.com 1.10,2013-11-05 04:40:00,
2013-11-05 04:55:00,47.5,46.0,29.03,West,262,1.0,4.0,93,0.09,,,0.12,weatherlink.com 1.10,2013-11-05 04:55:00,
2013-11-05 05:10:00,47.7,46.0,29.02,WSW,250,2.0,9.0,93,0.07,,,0.12,weatherlink.com 1.10,2013-11-05 05:10:00,
2013-11-05 05:25:00,48.4,47.0,29.02,WNW,284,7.0,13.0,93,0.04,,,0.12,weatherlink.com 1.10,2013-11-05 05:25:00,
2013-11-05 05:40:00,48.5,46.0,29.02,WSW,252,6.0,12.0,92,0.02,,,0.13,weatherlink.com 1.10,2013-11-05 05:40:00,
2013-11-05 05:55:00,48.3,46.0,29.02,SW,231,3.0,12.0,93,0.02,,,0.13,weatherlink.com 1.10,2013-11-05 05:55:00,
2013-11-05 06:11:00,48.3,46.0,29.03,WSW,255,6.0,13.0,92,0.02,,,0.13,weatherlink.com 1.10,2013-11-05 06:11:00,
2013-11-05 06:26:00,48.2,46.0,29.03,SW,236,3.0,13.0,91,0.02,,,0.13,weatherlink.com 1.10,2013-11-05 06:26:00,
2013-11-05 06:41:00,48.1,45.0,29.04,SW,217,6.0,17.0,90,0.01,,,0.13,weatherlink.com 1.10,2013-11-05 06:41:00,
2013-11-05 06:56:00,48.2,45.0,29.04,West,266,3.0,18.0,89,0.00,,,0.13,weatherlink.com 1.10,2013-11-05 06:56:00,
2013-11-05 07:11:00,47.8,45.0,29.06,WSW,250,3.0,17.0,89,0.00,,,0.13,weatherlink.com 1.10,2013-11-05 07:11:00,
2013-11-05 07:26:00,47.5,44.0,29.06,West,270,5.0,15.0,88,0.00,,,0.13,weatherlink.com 1.10,2013-11-05 07:26:00,
2013-11-05 07:41:00,46.9,44.0,29.07,WSW,258,2.0,9.0,88,0.00,,,0.13,weatherlink.com 1.10,2013-11-05 07:41:00,
2013-11-05 07:56:00,46.2,43.0,29.08,SW,231,4.0,11.0,89,0.00,,,0.13,weatherlink.com 1.10,2013-11-05 07:56:00,
2013-11-05 08:11:00,45.9,43.0,29.09,West,260,6.0,8.0,89,0.00,,,0.13,weatherlink.com 1.10,2013-11-05 08:11:00,
2013-11-05 08:26:00,46.1,43.0,29.12,WSW,253,3.0,11.0,88,0.00,,,0.13,weatherlink.com 1.10,2013-11-05 08:26:00,
2013-11-05 08:41:00,46.3,43.0,29.12,NW,309,3.0,11.0,89,0.00,,,0.13,weatherlink.com 1.10,2013-11-05 08:41:00,
2013-11-05 08:56:00,46.7,44.0,29.12,West,259,2.0,11.0,89,0.00,,,0.13,weatherlink.com 1.10,2013-11-05 08:56:00,
2013-11-05 09:11:00,46.9,44.0,29.13,SW,233,3.0,16.0,88,0.00,,,0.13,weatherlink.com 1.10,2013-11-05 09:11:00,
2013-11-05 09:26:00,47.1,44.0,29.13,WNW,289,2.0,11.0,87,0.00,,,0.13,weatherlink.com 1.10,2013-11-05 09:26:00,
2013-11-05 09:41:00,47.4,43.0,29.15,WSW,248,5.0,12.0,86,0.00,,,0.13,weatherlink.com 1.10,2013-11-05 09:41:00,
2013-11-05 09:56:00,47.7,43.0,29.14,West,273,4.0,11.0,85,0.00,,,0.13,weatherlink.com 1.10,2013-11-05 09:56:00,
2013-11-05 10:11:00,48.0,43.0,29.15,WSW,246,3.0,10.0,84,0.00,,,0.13,weatherlink.com 1.10,2013-11-05 10:11:00,
2013-11-05 10:26:00,48.1,43.0,29.14,WSW,239,5.0,12.0,83,0.00,,,0.13,weatherlink.com 1.10,2013-11-05 10:26:00,
2013-11-05 10:41:00,48.3,43.0,29.15,WNW,300,5.0,13.0,82,0.00,,,0.13,weatherlink.com 1.10,2013-11-05 10:41:00,
2013-11-05 10:56:00,48.4,43.0,29.14,WSW,245,3.0,15.0,82,0.00,,,0.13,weatherlink.com 1.10,2013-11-05 10:56:00,
2013-11-05 11:11:00,49.1,43.0,29.14,West,263,2.0,13.0,80,0.00,,,0.13,weatherlink.com 1.10,2013-11-05 11:11:00,
2013-11-05 11:26:00,50.2,44.0,29.14,WNW,288,4.0,12.0,79,0.00,,,0.13,weatherlink.com 1.10,2013-11-05 11:26:00,
2013-11-05 11:41:00,50.2,44.0,29.15,WNW,288,5.0,13.0,78,0.00,,,0.13,weatherlink.com 1.10,2013-11-05 11:41:00,
2013-11-05 11:57:00,50.8,44.0,29.16,WSW,252,7.0,14.0,77,0.00,,,0.13,weatherlink.com 1.10,2013-11-05 11:57:00,
2013-11-05 12:12:00,51.5,44.0,29.16,WNW,291,10.0,15.0,76,0.00,,,0.13,weatherlink.com 1.10,2013-11-05 12:12:00,
2013-11-05 12:27:00,51.0,44.0,29.15,WNW,284,5.0,12.0,76,0.00,,,0.13,weatherlink.com 1.10,2013-11-05 12:27:00,
2013-11-05 12:42:00,50.8,44.0,29.16,NNW,346,2.0,17.0,76,0.00,,,0.13,weatherlink.com 1.10,2013-11-05 12:42:00,
2013-11-05 12:57:00,50.5,43.0,29.17,East,82,5.0,17.0,76,0.00,,,0.13,weatherlink.com 1.10,2013-11-05 12:57:00,
2013-11-05 13:12:00,50.2,43.0,29.16,South,177,2.0,13.0,76,0.00,,,0.13,weatherlink.com 1.10,2013-11-05 13:12:00,
2013-11-05 13:27:00,50.0,43.0,29.18,WNW,295,3.0,13.0,76,0.00,,,0.13,weatherlink.com 1.10,2013-11-05 13:27:00,
2013-11-05 13:42:00,49.9,43.0,29.18,West,267,4.0,15.0,76,0.00,,,0.13,weatherlink.com 1.10,2013-11-05 13:42:00,
2013-11-05 13:57:00,49.5,42.0,29.19,SW,228,6.0,16.0,76,0.00,,,0.13,weatherlink.com 1.10,2013-11-05 13:57:00,
2013-11-05 14:12:00,49.4,42.0,29.19,WSW,256,4.0,7.0,76,0.00,,,0.13,weatherlink.com 1.10,2013-11-05 14:12:00,
2013-11-05 14:27:00,49.4,42.0,29.20,West,271,4.0,14.0,75,0.00,,,0.13,weatherlink.com 1.10,2013-11-05 14:27:00,
2013-11-05 14:42:00,49.3,42.0,29.20,West,276,9.0,10.0,75,0.00,,,0.13,weatherlink.com 1.10,2013-11-05 14:42:00,
2013-11-05 14:57:00,49.3,42.0,29.19,West,278,5.0,12.0,76,0.00,,,0.13,weatherlink.com 1.10,2013-11-05 14:57:00,
2013-11-05 15:12:00,49.6,42.0,29.20,SW,234,3.0,9.0,76,0.00,,,0.13,weatherlink.com 1.10,2013-11-05 15:12:00,
2013-11-05 15:27:00,49.2,42.0,29.20,WNW,283,3.0,10.0,77,0.00,,,0.13,weatherlink.com 1.10,2013-11-05 15:27:00,
2013-11-05 15:42:00,48.9,43.0,29.20,West,260,3.0,9.0,79,0.00,,,0.13,weatherlink.com 1.10,2013-11-05 15:42:00,
2013-11-05 15:57:00,48.8,43.0,29.21,West,269,8.0,11.0,79,0.00,,,0.13,weatherlink.com 1.10,2013-11-05 15:57:00,
2013-11-05 16:12:00,48.8,42.0,29.21,SW,219,2.0,13.0,77,0.00,,,0.13,weatherlink.com 1.10,2013-11-05 16:12:00,
2013-11-05 16:27:00,48.3,41.0,29.20,WNW,284,4.0,10.0,77,0.00,,,0.13,weatherlink.com 1.10,2013-11-05 16:27:00,
2013-11-05 16:42:00,47.9,41.0,29.21,SW,218,9.0,12.0,78,0.00,,,0.13,weatherlink.com 1.10,2013-11-05 16:42:00,
2013-11-05 16:57:00,47.5,41.0,29.21,West,264,3.0,11.0,79,0.00,,,0.13,weatherlink.com 1.10,2013-11-05 16:57:00,
2013-11-05 17:12:00,47.1,41.0,29.21,SW,228,7.0,9.0,80,0.00,,,0.13,weatherlink.com 1.10,2013-11-05 17:12:00,
2013-11-05 17:27:00,46.7,41.0,29.21,WSW,241,4.0,11.0,80,0.00,,,0.13,weatherlink.com 1.10,2013-11-05 17:27:00,
2013-11-05 17:42:00,46.5,41.0,29.22,West,262,2.0,10.0,80,0.00,,,0.13,weatherlink.com 1.10,2013-11-05 17:42:00,
2013-11-05 17:57:00,46.4,41.0,29.23,West,274,5.0,9.0,80,0.00,,,0.13,weatherlink.com 1.10,2013-11-05 17:57:00,
2013-11-05 18:12:00,46.4,41.0,29.23,WSW,252,4.0,10.0,81,0.00,,,0.13,weatherlink.com 1.10,2013-11-05 18:12:00,
2013-11-05 18:27:00,46.5,41.0,29.24,West,280,3.0,8.0,81,0.00,,,0.13,weatherlink.com 1.10,2013-11-05 18:27:00,
2013-11-05 18:42:00,46.5,41.0,29.24,WSW,245,2.0,10.0,81,0.00,,,0.13,weatherlink.com 1.10,2013-11-05 18:42:00,
2013-11-05 18:57:00,46.6,41.0,29.23,WNW,293,2.0,10.0,80,0.00,,,0.13,weatherlink.com 1.10,2013-11-05 18:57:00,
2013-11-05 19:12:00,46.6,40.0,29.23,West,262,5.0,10.0,79,0.00,,,0.13,weatherlink.com 1.10,2013-11-05 19:12:00,
2013-11-05 19:27:00,46.6,40.0,29.23,WSW,249,4.0,13.0,79,0.00,,,0.13,weatherlink.com 1.10,2013-11-05 19:27:00,
2013-11-05 19:42:00,46.6,40.0,29.24,WNW,294,4.0,13.0,77,0.00,,,0.13,weatherlink.com 1.10,2013-11-05 19:42:00,
2013-11-05 19:57:00,46.3,40.0,29.25,WSW,243,4.0,9.0,79,0.00,,,0.13,weatherlink.com 1.10,2013-11-05 19:57:00,
2013-11-05 20:12:00,46.1,41.0,29.25,West,262,4.0,10.0,82,0.00,,,0.13,weatherlink.com 1.10,2013-11-05 20:12:00,
2013-11-05 20:27:00,46.0,41.0,29.25,West,270,2.0,8.0,83,0.00,,,0.13,weatherlink.com 1.10,2013-11-05 20:27:00,
2013-11-05 20:42:00,46.4,42.0,29.25,WSW,253,6.0,12.0,84,0.00,,,0.13,weatherlink.com 1.10,2013-11-05 20:42:00,
2013-11-05 20:57:00,46.0,42.0,29.25,WSW,252,6.0,7.0,87,0.00,,,0.13,weatherlink.com 1.10,2013-11-05 20:57:00,
2013-11-05 21:12:00,45.8,42.0,29.26,WSW,245,5.0,10.0,87,0.00,,,0.13,weatherlink.com 1.10,2013-11-05 21:12:00,
2013-11-05 21:27:00,45.8,42.0,29.26,WSW,256,6.0,13.0,87,0.00,,,0.13,weatherlink.com 1.10,2013-11-05 21:27:00,
2013-11-05 21:42:00,45.9,42.0,29.25,ESE,113,1.0,8.0,86,0.00,,,0.13,weatherlink.com 1.10,2013-11-05 21:42:00,
2013-11-05 21:57:00,45.8,42.0,29.26,WNW,287,5.0,8.0,87,0.00,,,0.13,weatherlink.com 1.10,2013-11-05 21:57:00,
2013-11-05 22:12:00,45.8,42.0,29.26,SW,232,4.0,8.0,87,0.00,,,0.13,weatherlink.com 1.10,2013-11-05 22:12:00,
2013-11-05 22:27:00,45.8,42.0,29.26,NW,318,3.0,9.0,87,0.00,,,0.13,weatherlink.com 1.10,2013-11-05 22:27:00,
2013-11-05 22:42:00,45.9,43.0,29.26,WSW,246,4.0,9.0,88,0.00,,,0.13,weatherlink.com 1.10,2013-11-05 22:42:00,
2013-11-05 22:57:00,45.9,42.0,29.26,WNW,287,2.0,7.0,87,0.00,,,0.13,weatherlink.com 1.10,2013-11-05 22:57:00,
2013-11-05 23:12:00,46.1,43.0,29.26,SW,235,4.0,9.0,87,0.00,,,0.13,weatherlink.com 1.10,2013-11-05 23:12:00,
2013-11-05 23:42:00,46.3,43.0,29.26,SW,232,6.0,9.0,87,0.00,,,0.13,weatherlink.com 1.10,2013-11-05 23:42:00,
2013-11-05 23:58:00,46.5,43.0,29.26,West,264,3.0,12.0,87,0.00,,,0.13,weatherlink.com 1.10,2013-11-05 23:58:00,